Time;durP1;ratioP1;P1;durP2;ratioP2;P2;SDS_P1;SDS_P2;PMS_P1;PMS_P2;Temp;Humidity;BMP_temperature;BMP_pressure;BME280_temperature;BME280_humidity;BME280_pressure;Samples;Min_cycle;Max_cycle;Signal;HPM_P1;HPM_P2
2021/01/27 00:00:44;;;;;;;10.35;6.53;;;;;;;0.90;65.74;99812.95;1792785;79;21579;-74
2021/01/27 00:03:11;;;;;;;9.78;6.20;;;;;;;0.90;65.68;99813.75;1791251;78;22843;-75
2021/01/27 00:05:42;;;;;;;9.70;6.47;;;;;;;0.89;65.73;99816.09;1788638;79;21182;-76
2021/01/27 00:08:10;;;;;;;9.43;5.87;;;;;;;0.88;65.79;99816.29;1752571;79;21259;-75
2021/01/27 00:10:38;;;;;;;8.35;5.70;;;;;;;0.82;65.88;99820.56;1754191;78;21222;-75
2021/01/27 00:13:12;;;;;;;9.78;6.10;;;;;;;0.79;65.59;99813.61;1795618;79;21208;-75
2021/01/27 00:15:41;;;;;;;9.75;5.75;;;;;;;0.77;65.54;99824.86;1783289;79;22233;-75
2021/01/27 00:18:11;;;;;;;11.25;7.53;;;;;;;0.75;65.66;99827.68;1792323;78;21207;-73
2021/01/27 00:20:40;;;;;;;9.30;5.67;;;;;;;0.75;65.69;99830.82;1794626;78;21474;-75
2021/01/27 00:23:08;;;;;;;10.90;6.72;;;;;;;0.76;65.73;99826.69;1790369;78;21395;-74
2021/01/27 00:25:37;;;;;;;9.35;6.17;;;;;;;0.74;65.81;99828.70;1779717;79;21302;-76
2021/01/27 00:28:06;;;;;;;9.85;6.45;;;;;;;0.73;65.89;99832.36;1783694;78;21181;-75
2021/01/27 00:30:41;;;;;;;9.90;5.83;;;;;;;0.72;65.71;99826.78;1778849;79;21296;-74
2021/01/27 00:33:12;;;;;;;9.73;6.00;;;;;;;0.75;65.68;99822.94;1790760;78;21619;-74
2021/01/27 00:35:45;;;;;;;10.35;6.80;;;;;;;0.74;65.48;99814.25;1782723;79;21544;-75
2021/01/27 00:38:21;;;;;;;7.87;4.67;;;;;;;0.75;65.52;99813.22;1786008;79;21359;-75
2021/01/27 00:40:51;;;;;;;10.25;6.97;;;;;;;0.74;65.57;99818.19;1779629;78;21186;-75
2021/01/27 00:43:20;;;;;;;11.45;6.75;;;;;;;0.73;65.67;99815.27;1799597;79;21095;-75
2021/01/27 00:45:49;;;;;;;10.85;6.45;;;;;;;0.70;65.72;99805.98;1780324;78;21222;-75
2021/01/27 00:48:27;;;;;;;10.33;6.20;;;;;;;0.72;65.73;99793.93;1866604;75;22515;-74
2021/01/27 00:50:54;;;;;;;10.48;6.40;;;;;;;0.65;65.73;99790.02;1836572;75;21218;-74
2021/01/27 00:53:24;;;;;;;11.65;7.20;;;;;;;0.61;65.58;99786.22;1831885;77;21197;-74
2021/01/27 00:55:52;;;;;;;9.58;6.12;;;;;;;0.57;65.62;99783.72;1768221;79;21204;-74
2021/01/27 00:58:20;;;;;;;10.60;7.03;;;;;;;0.55;65.68;99785.73;1774940;78;21136;-74
2021/01/27 01:00:49;;;;;;;11.68;7.30;;;;;;;0.51;65.74;99791.12;1774218;80;21223;-74
2021/01/27 01:03:31;;;;;;;10.50;7.00;;;;;;;0.53;65.85;99782.53;1812213;77;23327;-75
2021/01/27 01:05:59;;;;;;;9.28;6.50;;;;;;;0.44;65.91;99785.09;1804489;79;21161;-76
2021/01/27 01:08:26;;;;;;;13.13;7.00;;;;;;;0.40;65.57;99785.22;1679779;78;9999619;-75
2021/01/27 01:10:57;;;;;;;9.85;6.55;;;;;;;0.40;65.73;99787.85;1764931;79;21577;-73
2021/01/27 01:13:24;;;;;;;11.00;6.90;;;;;;;0.39;65.82;99794.90;1798320;79;21186;-73
2021/01/27 01:15:52;;;;;;;11.93;7.42;;;;;;;0.36;65.90;99791.89;1796244;79;21173;-75
2021/01/27 01:18:21;;;;;;;10.32;6.80;;;;;;;0.34;66.07;99792.63;1799915;79;21375;-75
2021/01/27 01:20:50;;;;;;;12.47;7.28;;;;;;;0.32;66.17;99792.02;1808335;78;21206;-73
2021/01/27 01:23:20;;;;;;;9.90;6.10;;;;;;;0.30;66.29;99798.00;1764663;79;21201;-73
2021/01/27 01:25:49;;;;;;;10.93;6.70;;;;;;;0.27;66.40;99791.84;1804310;78;21187;-74
2021/01/27 01:28:17;;;;;;;10.50;6.42;;;;;;;0.25;66.51;99789.41;1807576;79;21244;-74
2021/01/27 01:30:46;;;;;;;10.28;6.10;;;;;;;0.22;66.58;99781.95;1804444;79;21204;-73
2021/01/27 01:33:21;;;;;;;10.48;6.22;;;;;;;0.20;66.71;99788.73;1811321;79;21185;-74
2021/01/27 01:35:50;;;;;;;10.45;6.50;;;;;;;0.17;66.83;99777.33;1804648;78;21246;-74
2021/01/27 01:38:19;;;;;;;10.48;6.85;;;;;;;0.15;66.90;99777.23;1761556;79;22327;-75
2021/01/27 01:40:54;;;;;;;12.40;7.20;;;;;;;0.11;67.01;99774.22;1800179;79;21168;-72
2021/01/27 01:43:27;;;;;;;10.03;6.30;;;;;;;0.09;67.12;99773.61;1759639;79;21392;-73
2021/01/27 01:46:02;;;;;;;13.83;7.53;;;;;;;0.09;67.23;99770.18;1810055;79;21200;-73
2021/01/27 01:48:40;;;;;;;11.65;6.72;;;;;;;0.07;67.29;99765.15;1791591;78;21171;-72
2021/01/27 01:51:16;;;;;;;11.68;6.20;;;;;;;0.07;67.35;99766.47;1808582;79;21616;-73
2021/01/27 01:53:47;;;;;;;10.18;6.60;;;;;;;0.07;67.43;99760.41;1755799;80;21179;-72
2021/01/27 01:56:17;;;;;;;9.80;5.92;;;;;;;0.06;67.44;99759.58;1779625;79;22165;-73
2021/01/27 01:58:45;;;;;;;10.50;6.45;;;;;;;0.05;67.47;99755.34;1726723;81;21179;-73
2021/01/27 02:01:13;;;;;;;11.65;6.05;;;;;;;0.03;67.51;99753.94;1760882;79;21183;-73
2021/01/27 02:03:43;;;;;;;10.35;6.53;;;;;;;0.02;67.55;99757.59;1772503;79;21179;-76
2021/01/27 02:06:13;;;;;;;10.25;6.60;;;;;;;-0.01;67.59;99758.29;1792960;79;21192;-78
2021/01/27 02:08:48;;;;;;;10.90;6.77;;;;;;;-0.04;67.69;99750.83;1646101;79;9999846;-74
2021/01/27 02:11:20;;;;;;;10.75;6.50;;;;;;;-0.05;67.75;99749.73;1746672;81;21208;-73
2021/01/27 02:14:13;;;;;;;11.93;7.35;;;;;;;-0.07;67.86;99749.92;1793653;79;21121;-73
2021/01/27 02:16:51;;;;;;;10.65;7.00;;;;;;;-0.08;67.92;99745.70;1764077;79;21255;-73
2021/01/27 02:19:42;;;;;;;12.60;7.62;;;;;;;-0.10;68.02;99743.80;1801436;79;21375;-73
2021/01/27 02:22:36;;;;;;;9.73;6.75;;;;;;;-0.10;68.10;99740.34;1793147;79;21199;-73
2021/01/27 02:25:25;;;;;;;;;;;;;;;-0.10;68.20;99736.41;1758963;80;21180;-74
2021/01/27 02:27:57;;;;;;;9.63;6.17;;;;;;;-0.15;68.30;99737.05;1772975;79;20303;-74
2021/01/27 02:30:48;;;;;;;;;;;;;;;-0.17;68.39;99742.19;1764305;80;21122;-74
2021/01/27 02:33:25;;;;;;;11.53;7.22;;;;;;;-0.20;68.46;99739.47;1754609;80;22226;-74
2021/01/27 02:36:27;;;;;;;10.63;6.20;;;;;;;-0.22;68.62;99742.82;1759747;80;21223;-73
2021/01/27 02:39:21;;;;;;;11.93;7.58;;;;;;;-0.24;68.71;99738.27;1783361;78;21207;-74
2021/01/27 02:42:06;;;;;;;11.08;7.25;;;;;;;-0.26;68.86;99738.50;1801517;79;21671;-74
2021/01/27 02:44:47;;;;;;;12.78;7.58;;;;;;;-0.27;68.98;99742.11;1783980;79;21168;-74
2021/01/27 02:47:20;;;;;;;11.43;6.90;;;;;;;-0.28;69.03;99739.70;1790747;79;21809;-74
2021/01/27 02:50:06;;;;;;;10.20;6.67;;;;;;;-0.27;69.11;99743.42;1761263;79;21687;-73
2021/01/27 02:52:38;;;;;;;12.18;8.10;;;;;;;-0.26;69.17;99743.75;1763847;80;21191;-73
2021/01/27 02:55:12;;;;;;;10.90;7.58;;;;;;;-0.23;69.22;99742.53;1761685;79;21177;-73
2021/01/27 02:57:56;;;;;;;12.65;8.05;;;;;;;-0.19;69.26;99744.23;1800756;79;21156;-73
2021/01/27 03:00:45;;;;;;;13.03;8.10;;;;;;;-0.12;69.29;99738.45;1833523;77;23407;-73
2021/01/27 03:03:25;;;;;;;13.10;8.10;;;;;;;-0.17;69.32;99735.63;1800605;78;21678;-74
2021/01/27 03:05:57;;;;;;;12.98;8.55;;;;;;;-0.19;69.35;99738.98;1804845;78;22678;-73
2021/01/27 03:08:32;;;;;;;11.95;8.03;;;;;;;-0.19;69.38;99741.10;1809116;78;22334;-74
2021/01/27 03:11:13;;;;;;;16.10;8.33;;;;;;;-0.17;69.46;99736.44;1845627;77;22740;-74
2021/01/27 03:13:43;;;;;;;13.35;8.58;;;;;;;-0.20;69.52;99735.53;1816840;78;21591;-74
2021/01/27 03:16:16;;;;;;;13.85;8.65;;;;;;;-0.15;69.60;99738.87;1784402;78;21340;-74
2021/01/27 03:18:48;;;;;;;15.10;9.70;;;;;;;-0.11;69.59;99730.88;1814116;77;21198;-74
2021/01/27 03:21:22;;;;;;;22.10;12.60;;;;;;;-0.08;69.56;99723.90;1803780;77;21164;-74
2021/01/27 03:23:55;;;;;;;30.20;17.25;;;;;;;-0.06;69.57;99726.63;1805253;78;21160;-73
2021/01/27 03:26:34;;;;;;;23.15;13.78;;;;;;;-0.09;69.57;99719.16;1800505;78;21092;-73
2021/01/27 03:29:26;;;;;;;15.65;10.53;;;;;;;-0.08;69.56;99722.58;1801034;78;21378;-74
2021/01/27 03:31:56;;;;;;;14.15;8.88;;;;;;;-0.07;69.58;99712.37;1815682;78;21117;-73
2021/01/27 03:34:38;;;;;;;15.08;9.53;;;;;;;-0.05;69.59;99707.22;1802190;78;21117;-73
2021/01/27 03:37:18;;;;;;;14.28;9.73;;;;;;;-0.04;69.57;99711.45;1817054;78;21128;-74
2021/01/27 03:39:52;;;;;;;16.50;10.28;;;;;;;-0.03;69.56;99711.77;1813929;78;21045;-73
2021/01/27 03:42:46;;;;;;;15.63;10.00;;;;;;;-0.01;69.51;99716.80;1807996;77;22270;-74
2021/01/27 03:45:21;;;;;;;15.97;10.43;;;;;;;0.05;69.48;99715.16;1867411;74;22662;-74
2021/01/27 03:48:06;;;;;;;15.63;9.50;;;;;;;0.01;69.48;99716.61;1826591;77;21468;-74
2021/01/27 03:50:35;;;;;;;15.40;9.13;;;;;;;-0.01;69.43;99719.42;1824573;78;21334;-74
2021/01/27 03:53:10;;;;;;;16.37;10.68;;;;;;;-0.04;69.45;99736.90;1790668;77;21607;-74
2021/01/27 03:55:55;;;;;;;15.50;9.83;;;;;;;-0.06;69.51;99737.63;1823502;78;21128;-73
2021/01/27 03:58:31;;;;;;;16.50;10.38;;;;;;;-0.08;69.66;99733.08;1833462;76;21167;-74
2021/01/27 04:01:09;;;;;;;16.02;9.65;;;;;;;-0.05;69.76;99735.30;1823555;78;21174;-73
2021/01/27 04:03:37;;;;;;;13.38;9.60;;;;;;;-0.02;69.84;99737.51;1827035;78;22388;-73
2021/01/27 04:06:06;;;;;;;14.55;8.80;;;;;;;-0.03;69.87;99740.64;1821534;78;21501;-74
2021/01/27 04:08:35;;;;;;;11.40;7.75;;;;;;;-0.01;69.94;99733.86;1823774;78;21206;-74
2021/01/27 04:11:03;;;;;;;15.25;9.10;;;;;;;-0.04;69.91;99732.96;1816324;76;21036;-75
2021/01/27 04:13:32;;;;;;;12.20;7.70;;;;;;;-0.08;69.95;99737.02;1828006;78;21327;-74
2021/01/27 04:16:00;;;;;;;14.00;8.75;;;;;;;-0.12;69.95;99735.83;1813849;77;21543;-74
2021/01/27 04:18:28;;;;;;;14.98;8.83;;;;;;;-0.18;70.05;99734.03;1806054;78;21053;-75
2021/01/27 04:20:57;;;;;;;13.35;8.83;;;;;;;-0.22;70.13;99730.21;1816760;76;21587;-74
2021/01/27 04:23:25;;;;;;;13.22;8.65;;;;;;;-0.24;70.21;99734.34;1821603;78;21618;-74
2021/01/27 04:25:53;;;;;;;13.70;9.25;;;;;;;-0.22;70.31;99739.40;1822885;78;21119;-74
2021/01/27 04:28:20;;;;;;;12.18;8.20;;;;;;;-0.21;70.41;99739.17;1823048;78;21210;-74
2021/01/27 04:30:49;;;;;;;12.70;7.78;;;;;;;-0.22;70.53;99739.40;1822022;76;21199;-74
2021/01/27 04:33:16;;;;;;;13.25;8.90;;;;;;;-0.24;70.62;99733.83;1817984;77;21539;-75
2021/01/27 04:35:45;;;;;;;13.62;8.78;;;;;;;-0.27;70.66;99739.48;1820187;78;21567;-74
2021/01/27 04:38:12;;;;;;;15.23;9.25;;;;;;;-0.28;70.78;99738.39;1826256;78;21143;-74
2021/01/27 04:40:44;;;;;;;14.13;9.08;;;;;;;-0.27;70.85;99743.42;1821146;78;21151;-74
2021/01/27 04:43:25;;;;;;;13.62;8.83;;;;;;;-0.24;70.93;99740.39;1821422;78;21112;-74
2021/01/27 04:45:58;;;;;;;13.78;8.85;;;;;;;-0.20;70.99;99740.78;1815529;78;21159;-75
2021/01/27 04:48:51;;;;;;;13.95;8.85;;;;;;;-0.18;71.04;99741.91;1800011;78;21100;-75
2021/01/27 04:51:27;;;;;;;14.15;9.30;;;;;;;-0.17;71.12;99742.19;1801505;77;21157;-74
2021/01/27 04:54:28;;;;;;;12.65;8.20;;;;;;;-0.17;71.17;99746.12;1820955;77;21107;-73
2021/01/27 04:57:23;;;;;;;13.43;9.00;;;;;;;-0.17;71.21;99751.38;1776228;78;21579;-76
2021/01/27 05:00:08;;;;;;;13.78;8.78;;;;;;;-0.17;71.32;99754.80;1788759;77;21147;-74
2021/01/27 05:02:56;;;;;;;14.05;9.33;;;;;;;-0.15;71.41;99755.42;1809155;78;21116;-75
2021/01/27 05:05:32;;;;;;;12.88;8.50;;;;;;;-0.13;71.45;99757.82;1807604;78;21172;-75
2021/01/27 05:08:11;;;;;;;13.50;8.70;;;;;;;-0.10;71.49;99770.05;1821667;76;21352;-74
2021/01/27 05:10:55;;;;;;;13.58;8.80;;;;;;;-0.09;71.51;99770.34;1819582;77;21151;-76
2021/01/27 05:13:37;;;;;;;13.45;9.00;;;;;;;-0.08;71.53;99765.38;1817996;76;21123;-75
2021/01/27 05:16:12;;;;;;;13.98;8.70;;;;;;;-0.06;71.59;99765.19;1819368;76;21124;-74
2021/01/27 05:18:39;;;;;;;14.95;9.15;;;;;;;-0.04;71.58;99767.09;1820244;78;21140;-74
2021/01/27 05:21:27;;;;;;;13.83;8.85;;;;;;;-0.04;71.58;99772.34;1825657;78;21243;-74
2021/01/27 05:23:56;;;;;;;13.38;9.23;;;;;;;-0.05;71.58;99781.23;1823354;78;21205;-75
2021/01/27 05:26:45;;;;;;;14.43;9.00;;;;;;;-0.07;71.58;99777.48;1817832;78;21156;-74
2021/01/27 05:29:22;;;;;;;13.03;9.00;;;;;;;-0.08;71.54;99770.64;1829967;77;21136;-74
2021/01/27 05:32:06;;;;;;;14.58;9.25;;;;;;;-0.12;71.54;99765.50;1780365;79;21194;-73
2021/01/27 05:34:42;;;;;;;14.47;9.13;;;;;;;-0.16;71.66;99766.94;1724769;81;21133;-75
2021/01/27 05:37:16;;;;;;;15.55;10.13;;;;;;;-0.17;71.76;99772.37;1819358;76;21587;-74
2021/01/27 05:39:45;;;;;;;16.62;10.20;;;;;;;-0.16;71.81;99775.32;1836297;77;21140;-74
2021/01/27 05:42:30;;;;;;;15.65;9.45;;;;;;;-0.15;71.83;99779.55;1826238;78;21120;-74
2021/01/27 05:45:25;;;;;;;13.98;9.08;;;;;;;-0.14;71.86;99779.33;1821987;78;21131;-75
2021/01/27 05:47:54;;;;;;;14.33;9.65;;;;;;;-0.08;71.92;99779.02;1828121;78;21479;-74
2021/01/27 05:50:34;;;;;;;14.68;9.18;;;;;;;-0.07;71.93;99776.17;1813765;76;21139;-75
2021/01/27 05:53:20;;;;;;;15.72;10.00;;;;;;;-0.05;71.95;99772.05;1816399;78;21132;-74
2021/01/27 05:56:00;;;;;;;19.27;11.18;;;;;;;-0.03;71.95;99778.71;1771499;79;21059;-75
2021/01/27 05:58:34;;;;;;;15.60;9.73;;;;;;;-0.07;72.04;99774.86;1829727;77;21219;-73
2021/01/27 06:01:20;;;;;;;18.32;11.12;;;;;;;-0.10;72.03;99773.16;1810095;78;22908;-76
2021/01/27 06:04:14;;;;;;;17.00;10.98;;;;;;;-0.15;72.10;99770.36;1828040;78;21148;-74
2021/01/27 06:06:55;;;;;;;17.42;10.85;;;;;;;-0.17;72.20;99772.37;1828550;78;21477;-76
2021/01/27 06:09:42;;;;;;;13.83;8.45;;;;;;;-0.17;72.31;99782.36;1825333;76;21143;-74
2021/01/27 06:12:27;;;;;;;13.88;9.28;;;;;;;-0.16;72.44;99783.20;1780736;79;21158;-74
2021/01/27 06:15:10;;;;;;;14.58;9.93;;;;;;;-0.17;72.59;99786.30;1824173;76;21284;-74
2021/01/27 06:18:07;;;;;;;15.75;9.80;;;;;;;-0.13;72.75;99790.63;1807026;78;21600;-73
2021/01/27 06:20:35;;;;;;;15.28;10.08;;;;;;;-0.08;72.89;99790.83;1664654;84;21127;-74
2021/01/27 06:23:47;;;;;;;20.08;13.05;;;;;;;-0.05;72.96;99790.42;1666447;84;21253;-74
2021/01/27 06:27:05;;;;;;;21.87;13.70;;;;;;;-0.05;72.98;99786.48;1825712;76;23082;-73
2021/01/27 06:29:57;;;;;;;21.93;13.83;;;;;;;-0.13;72.99;99785.38;1816162;79;21053;-73
2021/01/27 06:32:51;;;;;;;26.35;16.07;;;;;;;-0.12;73.04;99796.20;1802942;78;22503;-75
2021/01/27 06:35:45;;;;;;;25.97;17.00;;;;;;;-0.09;73.06;99799.22;1809096;79;21108;-73
2021/01/27 06:38:42;;;;;;;27.30;17.05;;;;;;;-0.02;73.10;99798.69;1811944;79;21128;-75
2021/01/27 06:41:37;;;;;;;20.57;13.55;;;;;;;0.07;73.11;99797.17;1799066;79;21188;-74
2021/01/27 06:44:28;;;;;;;17.92;12.10;;;;;;;0.15;73.07;99799.55;1807565;78;21481;-74
2021/01/27 06:47:17;;;;;;;17.77;11.40;;;;;;;0.22;73.05;99801.13;1800976;79;21788;-74
2021/01/27 06:50:09;;;;;;;16.77;11.10;;;;;;;0.27;72.97;99797.09;1816258;79;21635;-74
2021/01/27 06:53:32;;;;;;;17.70;12.30;;;;;;;0.28;72.83;99794.77;1811465;78;21160;-75
2021/01/27 06:56:28;;;;;;;22.48;13.53;;;;;;;0.20;72.72;99794.50;1811954;77;21160;-75
2021/01/27 06:59:38;;;;;;;22.37;14.10;;;;;;;0.16;72.82;99784.09;1808818;79;21148;-73
2021/01/27 07:02:45;;;;;;;23.85;13.95;;;;;;;0.19;72.84;99775.80;1806425;79;21857;-74
2021/01/27 07:05:51;;;;;;;18.40;11.70;;;;;;;0.29;72.91;99774.04;1802679;78;21150;-74
2021/01/27 07:08:58;;;;;;;19.32;13.05;;;;;;;0.31;72.79;99767.57;1808707;77;21140;-74
2021/01/27 07:11:54;;;;;;;23.27;14.28;;;;;;;0.33;72.85;99773.91;1815414;78;21152;-75
2021/01/27 07:14:33;;;;;;;20.12;13.22;;;;;;;0.34;72.80;99767.66;1808816;77;21163;-74
2021/01/27 07:17:06;;;;;;;20.97;12.55;;;;;;;0.36;72.77;99773.50;1811452;78;21375;-73
2021/01/27 07:20:04;;;;;;;21.97;14.70;;;;;;;0.39;72.76;99779.14;1794831;78;21168;-73
2021/01/27 07:22:52;;;;;;;18.45;11.18;;;;;;;0.46;72.78;99775.16;1807729;79;21049;-73
2021/01/27 07:25:40;;;;;;;21.55;13.08;;;;;;;0.51;72.63;99779.81;1808791;79;21187;-74
2021/01/27 07:28:16;;;;;;;20.72;12.60;;;;;;;0.49;72.59;99781.31;1798067;78;21109;-74
2021/01/27 07:31:02;;;;;;;19.42;12.85;;;;;;;0.52;72.57;99778.78;1812514;79;21379;-74
2021/01/27 07:33:44;;;;;;;18.62;12.13;;;;;;;0.56;72.46;99779.48;1796293;79;21176;-74
2021/01/27 07:36:15;;;;;;;;;;;;;;;0.61;72.34;99782.27;1808387;78;21179;-74
2021/01/27 07:38:42;;;;;;;16.27;11.28;;;;;;;0.68;72.32;99784.34;1815273;79;20208;-74
2021/01/27 07:41:18;;;;;;;19.57;12.35;;;;;;;0.78;72.26;99777.31;1803421;79;21196;-74
2021/01/27 07:43:59;;;;;;;17.90;11.83;;;;;;;0.86;72.14;99773.65;1808883;78;22364;-74
2021/01/27 07:47:02;;;;;;;21.63;15.07;;;;;;;0.93;71.85;99775.20;1838386;76;23263;-73
2021/01/27 07:49:43;;;;;;;19.90;12.65;;;;;;;0.86;71.83;99767.88;1830667;77;21187;-73
2021/01/27 07:52:24;;;;;;;21.60;13.43;;;;;;;0.90;71.70;99770.38;1831889;77;22268;-74
2021/01/27 07:55:18;;;;;;;19.87;13.28;;;;;;;0.86;71.58;99767.08;1834444;76;21152;-74
2021/01/27 07:58:07;;;;;;;21.97;13.72;;;;;;;0.87;71.61;99760.79;1797965;78;21495;-73
2021/01/27 08:01:04;;;;;;;21.20;14.15;;;;;;;0.93;71.46;99763.38;1849796;75;21195;-76
2021/01/27 08:03:40;;;;;;;21.33;13.98;;;;;;;0.90;71.34;99771.69;1830081;75;21187;-74
2021/01/27 08:06:14;;;;;;;22.22;14.35;;;;;;;0.90;71.36;99774.83;1798738;77;21453;-75
2021/01/27 08:08:58;;;;;;;22.13;14.03;;;;;;;0.90;71.44;99768.25;1803076;77;21068;-74
2021/01/27 08:11:38;;;;;;;21.55;14.47;;;;;;;0.94;71.47;99765.48;1786011;77;21095;-74
2021/01/27 08:14:07;;;;;;;20.72;13.75;;;;;;;1.02;71.43;99777.56;1831089;75;21131;-75
2021/01/27 08:16:39;;;;;;;23.35;13.13;;;;;;;1.06;71.21;99774.83;1802667;77;21797;-76
2021/01/27 08:19:18;;;;;;;25.05;15.72;;;;;;;1.05;71.10;99774.51;1815757;78;21193;-73
2021/01/27 08:21:56;;;;;;;23.92;16.25;;;;;;;1.05;70.97;99777.14;1801362;78;21202;-74
2021/01/27 08:24:41;;;;;;;21.05;12.90;;;;;;;1.05;71.10;99766.11;1768427;78;21260;-74
2021/01/27 08:27:29;;;;;;;21.42;14.47;;;;;;;1.14;71.14;99766.14;1837906;75;21680;-76
2021/01/27 08:30:08;;;;;;;24.47;16.27;;;;;;;1.19;71.06;99758.14;1800677;77;21148;-73
2021/01/27 08:32:37;;;;;;;24.67;16.65;;;;;;;1.23;70.99;99764.58;1797580;77;22308;-75
2021/01/27 08:35:31;;;;;;;26.17;16.82;;;;;;;1.26;70.94;99766.27;1832787;76;21484;-75
2021/01/27 08:38:27;;;;;;;27.02;17.85;;;;;;;1.33;70.83;99769.64;1837964;75;21603;-74
2021/01/27 08:40:55;;;;;;;26.87;17.92;;;;;;;1.33;70.60;99761.75;1839066;77;21206;-74
2021/01/27 08:43:30;;;;;;;28.92;18.73;;;;;;;1.36;70.62;99757.37;1838631;76;21136;-74
2021/01/27 08:45:58;;;;;;;30.60;19.75;;;;;;;1.38;70.45;99752.70;1816047;76;21353;-77
2021/01/27 08:48:50;;;;;;;30.97;19.70;;;;;;;1.35;70.38;99758.40;1819476;76;21128;-74
2021/01/27 08:51:42;;;;;;;29.60;19.48;;;;;;;1.36;70.34;99756.05;1810303;76;21171;-73
2021/01/27 08:54:41;;;;;;;35.15;21.23;;;;;;;1.38;70.33;99753.19;1820688;77;21223;-74
2021/01/27 08:57:27;;;;;;;29.67;19.55;;;;;;;1.41;70.35;99752.77;1811894;76;21179;-74
2021/01/27 09:00:22;;;;;;;29.70;20.27;;;;;;;1.46;70.27;99751.61;1816185;76;21246;-74
2021/01/27 09:03:00;;;;;;;31.80;19.23;;;;;;;1.47;70.23;99756.36;1821503;78;21135;-74
2021/01/27 09:05:38;;;;;;;29.80;20.40;;;;;;;1.50;70.16;99753.30;1811708;77;21211;-73
2021/01/27 09:08:20;;;;;;;32.88;21.52;;;;;;;1.52;70.04;99751.27;1819084;76;21188;-73
2021/01/27 09:10:59;;;;;;;30.77;19.17;;;;;;;1.59;70.00;99754.12;1816672;78;21228;-73
2021/01/27 09:13:35;;;;;;;23.95;13.83;;;;;;;1.66;69.53;99749.30;1828988;78;21364;-76
2021/01/27 09:16:20;;;;;;;18.73;12.58;;;;;;;1.67;68.37;99754.34;1817193;76;21152;-75
2021/01/27 09:19:20;;;;;;;17.52;11.43;;;;;;;1.64;67.45;99752.94;1823883;76;21195;-73
2021/01/27 09:22:24;;;;;;;17.07;11.50;;;;;;;1.64;66.57;99762.15;1809720;79;21131;-73
2021/01/27 09:24:53;;;;;;;20.70;13.30;;;;;;;1.62;66.20;99753.69;1804937;76;21138;-74
2021/01/27 09:27:31;;;;;;;20.72;12.65;;;;;;;1.61;65.78;99759.15;1821460;77;21378;-75
2021/01/27 09:30:13;;;;;;;21.93;13.68;;;;;;;1.59;65.57;99760.70;1795344;78;21194;-74
2021/01/27 09:32:40;;;;;;;20.55;13.03;;;;;;;1.59;65.52;99750.69;1798044;78;21096;-74
2021/01/27 09:35:21;;;;;;;19.27;13.30;;;;;;;1.61;65.42;99758.67;1831213;77;22044;-75
2021/01/27 09:38:19;;;;;;;20.80;13.53;;;;;;;1.64;65.44;99750.30;1836119;76;21630;-74
2021/01/27 09:40:53;;;;;;;19.98;12.35;;;;;;;1.66;65.10;99749.30;1837236;76;21361;-73
2021/01/27 09:43:22;;;;;;;19.15;12.23;;;;;;;1.63;64.86;99752.66;1832322;75;21159;-73
2021/01/27 09:45:51;;;;;;;18.60;12.10;;;;;;;1.66;64.86;99754.57;1826344;75;21666;-73
2021/01/27 09:48:21;;;;;;;18.07;11.75;;;;;;;1.67;64.58;99765.38;1836498;75;21161;-74
2021/01/27 09:50:55;;;;;;;19.75;12.43;;;;;;;1.68;64.60;99753.82;1841970;76;21146;-73
2021/01/27 09:53:29;;;;;;;19.27;12.50;;;;;;;1.69;64.39;99751.50;1848745;76;21692;-73
2021/01/27 09:55:56;;;;;;;19.73;12.50;;;;;;;1.70;64.22;99742.57;1849524;76;21581;-74
2021/01/27 09:58:24;;;;;;;18.67;11.85;;;;;;;1.72;64.21;99736.59;1841746;76;21735;-75
2021/01/27 10:01:00;;;;;;;17.30;11.48;;;;;;;1.73;64.05;99732.41;1796431;78;21173;-73
2021/01/27 10:03:38;;;;;;;17.30;11.28;;;;;;;1.74;64.00;99735.84;1797968;76;21610;-74
2021/01/27 10:06:36;;;;;;;18.75;12.70;;;;;;;1.74;63.84;99737.16;1813421;77;21767;-73
2021/01/27 10:09:24;;;;;;;18.55;12.68;;;;;;;1.72;63.76;99736.08;1816312;77;21117;-73
2021/01/27 10:12:05;;;;;;;17.98;11.88;;;;;;;1.70;63.75;99727.58;1823930;78;21162;-74
2021/01/27 10:14:36;;;;;;;19.37;11.53;;;;;;;1.71;63.93;99727.89;1817058;76;21134;-73
2021/01/27 10:17:07;;;;;;;17.57;11.83;;;;;;;1.74;63.83;99720.84;1820660;76;21390;-74
2021/01/27 10:19:52;;;;;;;19.42;11.95;;;;;;;1.76;63.83;99724.59;1823054;77;21368;-73
2021/01/27 10:22:27;;;;;;;19.67;11.83;;;;;;;1.79;63.82;99724.16;1826166;76;21257;-74
2021/01/27 10:25:03;;;;;;;16.52;10.48;;;;;;;1.83;63.82;99722.16;1808729;78;21659;-73
2021/01/27 10:27:34;;;;;;;18.32;11.63;;;;;;;1.90;63.55;99722.09;1791677;77;21112;-73
2021/01/27 10:30:20;;;;;;;16.95;10.35;;;;;;;1.93;63.29;99730.87;1813426;77;21168;-74
2021/01/27 10:32:48;;;;;;;16.45;11.10;;;;;;;1.95;62.68;99730.66;1770402;78;22087;-73
2021/01/27 10:35:29;;;;;;;15.63;10.08;;;;;;;1.93;62.62;99726.92;1820880;77;21229;-74
2021/01/27 10:38:12;;;;;;;13.88;9.00;;;;;;;1.91;62.07;99719.77;1821980;77;21166;-74
2021/01/27 10:40:43;;;;;;;15.32;8.95;;;;;;;1.87;61.96;99714.62;1817494;77;21076;-74
2021/01/27 10:43:19;;;;;;;16.80;10.78;;;;;;;1.83;61.93;99713.47;1802762;77;21690;-73
2021/01/27 10:45:46;;;;;;;13.65;9.10;;;;;;;1.83;62.18;99716.90;1837264;76;21183;-74
2021/01/27 10:48:27;;;;;;;15.55;10.32;;;;;;;1.88;62.29;99714.94;1841642;75;21195;-74
2021/01/27 10:51:06;;;;;;;14.20;9.60;;;;;;;1.91;62.22;99709.23;1809116;78;21657;-73
2021/01/27 10:53:42;;;;;;;17.20;10.88;;;;;;;1.93;61.94;99706.37;1806381;78;21032;-75
2021/01/27 10:56:13;;;;;;;19.05;11.88;;;;;;;1.89;61.83;99702.05;1823282;77;21139;-74
2021/01/27 10:58:42;;;;;;;20.17;11.53;;;;;;;1.85;61.72;99700.38;1818927;77;21457;-74
2021/01/27 11:01:09;;;;;;;16.50;10.93;;;;;;;1.83;61.76;99705.56;1816608;77;21184;-74
2021/01/27 11:03:39;;;;;;;21.65;14.23;;;;;;;1.79;61.71;99699.94;1830947;77;21625;-74
2021/01/27 11:06:08;;;;;;;16.32;10.60;;;;;;;1.77;61.88;99698.55;1816851;77;21159;-73
2021/01/27 11:08:35;;;;;;;20.62;12.45;;;;;;;1.80;62.04;99687.06;1791154;78;21203;-74
2021/01/27 11:11:05;;;;;;;17.95;10.28;;;;;;;1.83;62.09;99692.41;1805838;76;22430;-73
2021/01/27 11:13:35;;;;;;;17.60;10.38;;;;;;;1.83;61.88;99687.14;1810721;76;21133;-74
2021/01/27 11:16:05;;;;;;;19.42;9.53;;;;;;;1.85;61.83;99689.84;1826843;78;21147;-73
2021/01/27 11:18:34;;;;;;;18.35;11.10;;;;;;;1.86;61.71;99688.81;1821250;76;21231;-76
2021/01/27 11:21:03;;;;;;;15.38;8.70;;;;;;;1.86;61.45;99682.23;1812572;78;21196;-74
2021/01/27 11:23:31;;;;;;;17.52;9.68;;;;;;;1.81;61.18;99682.11;1798273;77;21615;-74
2021/01/27 11:26:01;;;;;;;16.30;9.25;;;;;;;1.77;61.11;99678.80;1825287;78;21595;-74
2021/01/27 11:28:28;;;;;;;17.00;9.13;;;;;;;1.74;61.18;99691.88;1818261;76;21127;-74
2021/01/27 11:30:56;;;;;;;18.87;10.23;;;;;;;1.74;61.32;99693.72;1821476;78;21142;-73
2021/01/27 11:33:25;;;;;;;16.62;9.80;;;;;;;1.73;61.33;99681.59;1810032;77;21205;-72
2021/01/27 11:35:53;;;;;;;17.57;10.25;;;;;;;1.74;61.42;99681.35;1824032;77;21188;-74
2021/01/27 11:38:21;;;;;;;16.05;10.30;;;;;;;1.76;61.15;99683.78;1829133;76;21168;-73
2021/01/27 11:40:49;;;;;;;13.90;9.33;;;;;;;1.76;61.03;99682.47;1817287;77;21249;-73
2021/01/27 11:43:17;;;;;;;14.85;9.58;;;;;;;1.79;61.02;99678.08;1823867;78;21129;-74
2021/01/27 11:45:44;;;;;;;15.88;8.88;;;;;;;1.85;60.87;99678.00;1825067;76;21210;-72
2021/01/27 11:48:14;;;;;;;14.93;7.80;;;;;;;1.86;60.42;99680.91;1827727;76;22296;-73
2021/01/27 11:50:43;;;;;;;12.75;7.35;;;;;;;1.84;59.90;99674.25;1818388;77;22494;-73
2021/01/27 11:53:10;;;;;;;12.15;7.03;;;;;;;1.77;59.64;99680.11;1817017;77;21450;-73
2021/01/27 11:55:40;;;;;;;16.40;7.47;;;;;;;1.72;59.68;99679.47;1806524;78;21574;-74
2021/01/27 11:58:08;;;;;;;14.20;7.87;;;;;;;1.71;59.53;99679.67;1795779;77;21209;-73
2021/01/27 12:00:37;;;;;;;15.18;8.03;;;;;;;1.71;59.53;99677.05;1804712;77;21317;-74
2021/01/27 12:03:05;;;;;;;13.58;6.90;;;;;;;1.70;59.54;99670.18;1812050;77;21588;-73
2021/01/27 12:05:33;;;;;;;12.07;7.45;;;;;;;1.71;59.48;99673.92;1814836;78;21149;-73
2021/01/27 12:08:01;;;;;;;13.13;8.38;;;;;;;1.72;59.63;99672.09;1808893;77;21563;-74
2021/01/27 12:10:29;;;;;;;10.82;6.58;;;;;;;1.73;59.48;99673.69;1810589;77;21326;-74
2021/01/27 12:12:59;;;;;;;10.30;6.25;;;;;;;1.70;59.45;99670.18;1805586;77;21359;-74
2021/01/27 12:15:27;;;;;;;9.95;6.20;;;;;;;1.63;59.59;99674.20;1816639;77;22506;-74
2021/01/27 12:17:54;;;;;;;9.10;6.42;;;;;;;1.60;59.83;99672.01;1799249;77;21238;-74